Boca Raton, FL (33431)

3:47 AM EST on February 09, 2016 (GMT -0500)
Boca East | | Change Station
CLOSE
Current Station
Personal Weather Station
Location: Boca Raton, FL
Elevation: 46 ft
Nearby Weather Stations
Active Advisory: Coastal Hazard Statement

Elev 46 ft 26.39 °N, 80.11 °W | Updated 2 minutes ago

Clear
Clear
63.6 °F
Feels Like 63.6 °F
N
7.0
Wind Variable Wind from WNW
Gusts 13.0 mph

Today
High -- | Low -- °F
--% Chance of Precip.
Yesterday
High -- | Low -- °F
Precip. -- in
Pressure 29.94 in
Visibility 10.0 miles
Clouds Clear
Dew Point 59 °F
Humidity 84%
Rainfall 0.00 in
Snow Depth Not available.
7:00 AM 6:08 PM
New Moon, 1% visible
METAR KPMP 090753Z AUTO 23011KT 10SM CLR 17/14 A2994 RMK AO2 SLP138 T01720144
Pressure 29.94 in
Visibility 10.0 miles
Clouds Clear
Dew Point 59 °F
Humidity 84%
Rainfall 0.00 in
Snow Depth Not available.
7:00 AM 6:08 PM
New Moon, 1% visible
METAR KPMP 090753Z AUTO 23011KT 10SM CLR 17/14 A2994 RMK AO2 SLP138 T01720144

10-Day Weather Forecast

Almanac

Astronomy

Feb. 09, 2016 Rise Set
Actual Time
Civil Twilight
Nautical Twilight
Astronomical Twilight
Moon
Length of Visible Light
Length of Day
Tomorrow will be .
, % of the Moon is Illuminated

Today's Extremes

State Highs State Lows

Community

WunderPhotos

Upload Photos

1,891,571 photos uploaded!

WunderBlog® & News

Nearby

Air Quality

  Air Quality AQ Index Pollutant
Not available.

Snow Depth

Station Depth Elevation

Earthquake Activity

City Distance Mag. Time & Date
Minimum magnitude displayed is 2.5.

Coastal Water Temperatures

Place Temperature

Stations

Nearby Weather Stations

Station Location Temp. Windchill Dew Point Humidity Wind Precip. Elev Updated Type
                   

Watches & Warnings

Coastal Hazard Statement
Issued: 3:55 PM EST Feb. 8, 2016 – National Weather Service

... High rip current risk remains in effect through Tuesday
evening...

* timing... through Tuesday evening.

* Impacts... strong rip currents creating extremely dangerous
conditions for swimmers.

Precautionary/preparedness actions...

There is a high risk of rip currents.

Rip currents are powerful channels of water flowing quickly away
from shore... which occur most often at low spots or breaks in The
Sandbar and in the vicinity of structures such as groins...
jetties and piers. Heed the advice of lifeguards... beach patrol
flags and signs.

If you become caught in a rip current... Yell for help. Remain
calm... do not exhaust yourself and stay afloat while waiting for
help. If you have to swim out of a rip current... swim parallel to
shore and back toward the beach when possible. Do not attempt to
swim directly against a rip current as you will tire quickly.